Time;durP1;ratioP1;P1;durP2;ratioP2;P2;SDS_P1;SDS_P2;PMS_P1;PMS_P2;Temp;Humidity;BMP_temperature;BMP_pressure;BME280_temperature;BME280_humidity;BME280_pressure;Samples;Min_cycle;Max_cycle;Signal;HPM_P1;HPM_P2
2023/12/31 00:01:33;;;;;;;20.27;15.80;;;;;;;5.26;68.01;100155.25;4445500;32;20156;-73
2023/12/31 00:04:03;;;;;;;23.50;17.12;;;;;;;5.08;68.93;100154.28;4451852;32;20168;-73
2023/12/31 00:06:33;;;;;;;24.02;17.27;;;;;;;5.26;67.69;100150.84;4451719;32;20175;-73
2023/12/31 00:09:02;;;;;;;19.40;14.98;;;;;;;5.38;67.53;100149.44;4452057;32;20504;-73
2023/12/31 00:11:32;;;;;;;22.05;16.10;;;;;;;5.38;67.23;100152.06;4434963;32;20156;-73
2023/12/31 00:14:01;;;;;;;20.67;14.38;;;;;;;5.57;66.30;100147.72;4449484;32;20158;-73
2023/12/31 00:16:30;;;;;;;20.08;14.48;;;;;;;5.62;66.28;100137.88;4451605;32;20172;-73
2023/12/31 00:18:59;;;;;;;19.58;13.90;;;;;;;5.34;66.66;100138.22;4451713;32;20156;-73
2023/12/31 00:21:28;;;;;;;18.27;14.30;;;;;;;5.14;68.08;100133.84;4445380;32;20191;-73
2023/12/31 00:23:58;;;;;;;20.48;13.77;;;;;;;5.25;67.94;100127.28;4452071;32;20171;-73
2023/12/31 00:26:27;;;;;;;19.73;15.73;;;;;;;5.35;67.45;100128.59;4451756;32;20159;-73
2023/12/31 00:29:04;;;;;;;20.90;16.48;;;;;;;5.43;67.12;100124.69;4451600;32;20160;-73
2023/12/31 00:31:34;;;;;;;16.85;14.13;;;;;;;5.73;65.94;100118.13;4444493;32;20172;-73
2023/12/31 00:34:03;;;;;;;19.15;15.48;;;;;;;5.84;65.20;100111.44;4451186;32;20148;-73
2023/12/31 00:36:34;;;;;;;20.48;14.00;;;;;;;5.70;65.70;100121.72;4451585;32;20167;-73
2023/12/31 00:39:05;;;;;;;19.20;14.73;;;;;;;5.58;65.95;100123.16;4451999;32;20457;-73
2023/12/31 00:41:34;;;;;;;25.25;16.50;;;;;;;5.36;66.69;100127.66;4445348;32;20524;-74
2023/12/31 00:44:03;;;;;;;26.98;18.23;;;;;;;5.25;67.04;100122.03;4451486;32;20171;-74
2023/12/31 00:46:32;;;;;;;20.95;15.15;;;;;;;5.56;65.77;100125.00;4451861;32;20143;-74
2023/12/31 00:49:01;;;;;;;19.02;14.68;;;;;;;5.44;66.06;100122.91;4451566;32;20164;-74
2023/12/31 00:51:31;;;;;;;19.27;15.38;;;;;;;5.33;66.53;100125.16;4445082;32;20649;-74
2023/12/31 00:54:00;;;;;;;18.42;14.70;;;;;;;4.99;67.62;100129.25;4451878;32;20144;-74
2023/12/31 00:56:31;;;;;;;21.12;15.32;;;;;;;5.20;66.93;100129.25;4451476;32;20535;-74
2023/12/31 00:59:02;;;;;;;19.48;13.32;;;;;;;5.32;66.53;100126.94;4451520;32;20135;-74
2023/12/31 01:01:32;;;;;;;19.30;14.18;;;;;;;5.41;65.85;100125.66;4434545;32;20172;-75
2023/12/31 01:04:02;;;;;;;20.10;13.60;;;;;;;5.12;66.27;100129.59;4449286;32;20290;-74
2023/12/31 01:06:32;;;;;;;16.77;13.55;;;;;;;5.19;66.02;100133.66;4451385;32;20168;-74
2023/12/31 01:09:01;;;;;;;19.58;15.05;;;;;;;4.96;66.29;100128.53;4452267;32;20412;-74
2023/12/31 01:11:32;;;;;;;17.60;13.40;;;;;;;5.14;65.92;100123.31;4444999;32;20156;-74
2023/12/31 01:14:02;;;;;;;19.52;12.98;;;;;;;5.23;65.42;100129.13;4451566;32;20160;-74
2023/12/31 01:16:32;;;;;;;19.67;13.80;;;;;;;5.16;65.44;100133.78;4437158;32;20182;-74
2023/12/31 01:19:02;;;;;;;16.52;12.35;;;;;;;5.00;65.88;100133.59;4451332;32;20489;-73
2023/12/31 01:21:32;;;;;;;18.08;13.77;;;;;;;5.09;65.45;100132.34;4444726;32;20180;-74
2023/12/31 01:24:01;;;;;;;16.92;13.00;;;;;;;5.11;64.98;100133.13;4451760;32;20501;-74
2023/12/31 01:26:31;;;;;;;16.48;13.70;;;;;;;4.93;65.21;100129.50;4451247;32;20171;-74
2023/12/31 01:29:01;;;;;;;20.48;13.77;;;;;;;4.81;65.36;100130.88;4451314;32;20179;-74
2023/12/31 01:31:29;;;;;;;15.43;13.27;;;;;;;4.72;65.31;100135.66;4444817;32;20172;-74
2023/12/31 01:33:58;;;;;;;17.25;13.65;;;;;;;4.85;64.82;100128.97;4451496;32;20152;-74
2023/12/31 01:39:06;;;;;;;19.12;12.80;;;;;;;4.78;64.64;100125.75;4437281;32;20168;-74
2023/12/31 01:41:38;;;;;;;19.12;13.68;;;;;;;4.61;64.64;100120.34;4444853;32;20176;-74
2023/12/31 01:44:08;;;;;;;16.17;12.98;;;;;;;4.85;63.31;100116.69;4450636;32;20186;-73
2023/12/31 01:46:37;;;;;;;19.08;14.70;;;;;;;4.57;64.28;100127.50;4451251;32;20156;-74
2023/12/31 01:49:09;;;;;;;20.35;14.23;;;;;;;3.87;66.56;100115.41;4451021;32;20164;-74
2023/12/31 01:51:39;;;;;;;;;;;;;;;4.19;65.60;100119.38;4444990;32;20160;-73
2023/12/31 01:54:09;;;;;;;23.15;16.77;;;;;;;4.25;65.89;100114.84;4451349;32;20335;-73
2023/12/31 01:56:40;;;;;;;21.30;16.50;;;;;;;4.16;66.13;100122.16;4451047;32;20167;-73
2023/12/31 01:59:10;;;;;;;20.05;15.52;;;;;;;4.15;66.27;100114.31;4451341;32;20140;-73
2023/12/31 02:01:40;;;;;;;19.37;14.75;;;;;;;4.06;66.54;100122.56;4444629;32;20150;-73
2023/12/31 02:04:12;;;;;;;23.92;17.35;;;;;;;4.09;66.40;100117.22;4450900;32;20156;-73
2023/12/31 02:06:41;;;;;;;26.37;21.35;;;;;;;4.16;65.96;100114.28;4450795;32;20227;-73
2023/12/31 02:09:10;;;;;;;27.77;20.25;;;;;;;4.26;65.51;100117.38;4451183;32;20128;-74
2023/12/31 02:11:42;;;;;;;39.33;27.73;;;;;;;3.96;66.61;100111.59;4444492;32;20175;-73
2023/12/31 02:14:11;;;;;;;43.83;27.58;;;;;;;4.11;66.62;100110.12;4450771;32;20168;-74
2023/12/31 02:16:41;;;;;;;56.60;35.83;;;;;;;3.92;67.54;100104.75;4450707;32;20455;-73
2023/12/31 02:19:10;;;;;;;48.53;31.27;;;;;;;4.03;67.71;100106.94;4450696;32;20179;-73
2023/12/31 02:21:40;;;;;;;44.63;32.08;;;;;;;4.03;67.76;100104.31;4444350;32;20160;-73
2023/12/31 02:24:14;;;;;;;47.28;31.35;;;;;;;4.03;67.87;100106.94;4451113;32;20429;-74
2023/12/31 02:26:44;;;;;;;48.70;31.92;;;;;;;4.15;67.56;100107.31;4450544;32;20152;-74
2023/12/31 02:29:14;;;;;;;55.90;37.95;;;;;;;4.24;67.46;100094.75;4450599;32;20160;-74
2023/12/31 02:31:43;;;;;;;46.80;35.85;;;;;;;4.12;68.00;100103.97;4443999;32;20168;-74
2023/12/31 02:34:12;;;;;;;43.87;33.00;;;;;;;4.51;66.57;100098.88;4450664;32;20175;-73
2023/12/31 02:36:41;;;;;;;46.92;33.97;;;;;;;4.44;66.74;100095.66;4450296;32;20235;-74
2023/12/31 02:39:10;;;;;;;49.38;34.50;;;;;;;4.22;67.41;100094.81;4450666;32;20544;-74
2023/12/31 02:41:39;;;;;;;51.72;34.95;;;;;;;4.17;67.50;100095.00;4444072;32;20167;-74
2023/12/31 02:44:12;;;;;;;51.40;37.17;;;;;;;4.18;67.30;100096.72;4450585;32;20172;-74
2023/12/31 02:46:41;;;;;;;48.15;34.20;;;;;;;4.24;67.03;100094.75;4450277;32;20571;-74
2023/12/31 02:49:12;;;;;;;43.97;34.88;;;;;;;4.30;66.95;100092.75;4450240;32;20179;-74
2023/12/31 02:51:41;;;;;;;46.70;33.20;;;;;;;4.23;67.22;100086.03;4443736;32;20223;-74
2023/12/31 02:54:11;;;;;;;45.50;31.52;;;;;;;4.24;67.15;100084.25;4450557;32;20144;-74
2023/12/31 02:56:41;;;;;;;42.08;32.55;;;;;;;4.18;67.18;100077.50;4451834;32;20179;-74
2023/12/31 02:59:12;;;;;;;39.78;32.50;;;;;;;4.11;67.18;100086.53;4452668;32;20167;-74
2023/12/31 03:01:41;;;;;;;45.83;36.22;;;;;;;4.21;66.66;100087.03;4445836;32;20171;-74
2023/12/31 03:04:11;;;;;;;40.42;28.98;;;;;;;4.19;66.49;100074.81;4452337;32;20152;-73
2023/12/31 03:06:44;;;;;;;33.78;27.70;;;;;;;4.13;66.44;100079.47;4452149;32;20184;-74
2023/12/31 03:09:13;;;;;;;28.83;23.02;;;;;;;4.12;66.30;100086.47;4452925;32;20423;-74
2023/12/31 03:11:42;;;;;;;31.80;21.85;;;;;;;4.19;65.95;100081.81;4445831;32;20175;-74
2023/12/31 03:14:14;;;;;;;30.00;19.42;;;;;;;4.10;65.92;100076.94;4452215;32;20163;-74
2023/12/31 03:16:47;;;;;;;24.85;18.33;;;;;;;4.48;64.25;100080.66;4452539;32;20152;-74
2023/12/31 03:19:19;;;;;;;27.98;21.83;;;;;;;4.21;64.98;100071.28;4452266;32;20180;-73
2023/12/31 03:21:49;;;;;;;34.60;21.40;;;;;;;3.87;65.84;100073.47;4445861;32;20172;-74
2023/12/31 03:24:20;;;;;;;25.88;20.77;;;;;;;3.92;65.85;100068.91;4452702;32;20144;-73
2023/12/31 03:26:56;;;;;;;28.80;19.50;;;;;;;4.01;65.49;100065.06;4451776;32;20136;-73
2023/12/31 03:29:27;;;;;;;28.77;20.83;;;;;;;4.02;65.40;100063.28;4452229;32;20463;-73
2023/12/31 03:31:56;;;;;;;27.40;19.48;;;;;;;4.05;65.17;100064.03;4445627;32;20152;-74
2023/12/31 03:34:30;;;;;;;28.90;21.48;;;;;;;3.96;65.20;100069.66;4452097;32;20168;-73
2023/12/31 03:36:59;;;;;;;23.60;19.30;;;;;;;3.86;65.07;100063.03;4451946;32;20528;-73
2023/12/31 03:39:29;;;;;;;24.85;20.00;;;;;;;3.82;65.04;100062.31;4452109;32;20214;-73
2023/12/31 03:41:58;;;;;;;24.65;18.90;;;;;;;3.64;65.43;100058.66;4446327;32;20507;-73
2023/12/31 03:44:32;;;;;;;22.80;19.05;;;;;;;3.73;65.08;100053.97;4452247;32;20543;-74
2023/12/31 03:47:01;;;;;;;22.48;19.23;;;;;;;3.60;65.35;100050.94;4452099;32;20152;-73
2023/12/31 03:49:31;;;;;;;27.02;19.83;;;;;;;3.81;64.54;100052.75;4452149;32;20151;-73
2023/12/31 03:52:00;;;;;;;25.23;17.98;;;;;;;3.87;64.04;100054.25;4445554;32;20172;-73
2023/12/31 03:54:30;;;;;;;25.92;19.42;;;;;;;3.61;64.75;100050.91;4452023;32;20199;-73
2023/12/31 03:56:59;;;;;;;22.85;18.67;;;;;;;3.75;64.30;100052.97;4452331;32;20214;-73
2023/12/31 03:59:28;;;;;;;26.08;19.35;;;;;;;3.50;65.22;100045.22;4451924;32;20159;-73
2023/12/31 04:01:59;;;;;;;28.25;20.35;;;;;;;3.31;65.82;100038.94;4445494;32;20459;-73
2023/12/31 04:04:30;;;;;;;22.70;18.00;;;;;;;3.48;65.48;100043.53;4452212;32;20153;-74
2023/12/31 04:06:59;;;;;;;24.33;19.25;;;;;;;3.89;64.02;100034.94;4451747;32;20187;-73
2023/12/31 04:09:29;;;;;;;26.65;19.30;;;;;;;3.57;64.93;100040.59;4451979;32;20136;-73
2023/12/31 04:11:59;;;;;;;22.90;19.05;;;;;;;3.30;65.72;100045.09;4445972;32;20156;-73
2023/12/31 04:14:30;;;;;;;27.05;19.83;;;;;;;3.44;65.49;100038.44;4451828;32;20168;-74
2023/12/31 04:17:01;;;;;;;24.50;19.35;;;;;;;3.51;65.26;100036.44;4451776;32;20168;-74
2023/12/31 04:19:31;;;;;;;24.52;18.60;;;;;;;3.48;65.32;100041.78;4451791;32;20599;-74
2023/12/31 04:22:00;;;;;;;23.83;19.25;;;;;;;3.50;65.37;100045.22;4445475;32;20148;-74
2023/12/31 04:24:30;;;;;;;28.30;18.37;;;;;;;3.44;65.50;100035.81;4451867;32;20168;-73
2023/12/31 04:27:00;;;;;;;23.73;18.90;;;;;;;3.35;65.71;100044.00;4452400;32;20520;-74
2023/12/31 04:29:29;;;;;;;25.83;18.67;;;;;;;3.23;65.92;100041.84;4451845;32;20512;-74
2023/12/31 04:32:01;;;;;;;22.30;18.05;;;;;;;3.65;64.71;100035.91;4445158;32;20191;-74
2023/12/31 04:34:31;;;;;;;22.02;18.95;;;;;;;3.53;64.81;100046.87;4451790;32;20160;-74
2023/12/31 04:37:00;;;;;;;21.15;18.02;;;;;;;3.44;65.12;100046.31;4451616;32;20196;-73
2023/12/31 04:39:29;;;;;;;25.75;17.80;;;;;;;3.49;65.08;100048.75;4437455;32;20148;-73
2023/12/31 04:41:58;;;;;;;24.67;17.25;;;;;;;3.40;65.26;100047.31;4445779;32;20468;-74
2023/12/31 04:44:30;;;;;;;25.42;20.52;;;;;;;3.49;65.05;100051.38;4451820;32;20172;-75
2023/12/31 04:47:01;;;;;;;24.52;19.45;;;;;;;3.43;65.13;100051.59;4451637;32;20187;-74
2023/12/31 04:49:30;;;;;;;25.52;20.37;;;;;;;3.36;65.18;100052.72;4451568;32;20144;-74
2023/12/31 04:52:00;;;;;;;26.95;19.90;;;;;;;3.47;64.87;100047.09;4445078;32;20531;-74
2023/12/31 04:54:30;;;;;;;34.25;23.17;;;;;;;3.51;64.62;100044.28;4451469;32;20163;-74
2023/12/31 04:56:59;;;;;;;31.23;22.73;;;;;;;3.33;64.91;100037.13;4451936;32;20139;-74
2023/12/31 04:59:28;;;;;;;29.67;23.50;;;;;;;3.35;64.88;100037.91;4451458;32;20152;-74
2023/12/31 05:01:58;;;;;;;27.77;20.92;;;;;;;3.28;64.90;100031.19;4445083;32;20164;-75
2023/12/31 05:04:31;;;;;;;28.75;21.20;;;;;;;3.20;65.04;100034.94;4451609;32;20191;-74
2023/12/31 05:07:02;;;;;;;28.50;20.27;;;;;;;3.38;64.46;100030.81;4451560;32;20179;-74
2023/12/31 05:09:31;;;;;;;29.52;21.30;;;;;;;3.28;64.78;100031.19;4437255;32;20191;-74
2023/12/31 05:12:00;;;;;;;26.83;19.80;;;;;;;3.19;65.04;100033.25;4445639;32;20199;-75
2023/12/31 05:14:30;;;;;;;23.62;20.05;;;;;;;3.50;64.18;100041.75;4451512;32;20156;-74
2023/12/31 05:16:59;;;;;;;29.37;21.02;;;;;;;3.45;63.86;100036.69;4451440;32;20151;-74
2023/12/31 05:19:28;;;;;;;24.45;19.30;;;;;;;3.22;64.54;100040.16;4450369;32;20155;-74
2023/12/31 05:21:59;;;;;;;26.80;20.52;;;;;;;3.23;64.63;100031.38;4445045;32;20172;-74
2023/12/31 05:24:30;;;;;;;27.92;19.95;;;;;;;3.25;64.56;100032.19;4451330;32;20172;-74
2023/12/31 05:26:58;;;;;;;28.90;21.12;;;;;;;3.22;64.71;100034.06;4451653;32;20435;-74
2023/12/31 05:29:27;;;;;;;30.12;22.20;;;;;;;3.16;64.63;100025.50;4451306;32;20174;-74
2023/12/31 05:31:56;;;;;;;26.58;20.98;;;;;;;3.04;65.07;100023.34;4444893;32;20171;-75
2023/12/31 05:34:31;;;;;;;26.10;19.12;;;;;;;2.99;65.18;100024.41;4451176;32;20160;-75
2023/12/31 05:37:02;;;;;;;27.02;20.73;;;;;;;3.20;64.42;100015.78;4451427;32;20171;-74
2023/12/31 05:39:32;;;;;;;25.27;19.45;;;;;;;3.35;63.95;100019.59;4451093;32;20184;-74
2023/12/31 05:42:01;;;;;;;26.30;20.08;;;;;;;3.20;64.27;100019.25;4444920;32;20224;-74
2023/12/31 05:44:31;;;;;;;27.55;20.55;;;;;;;3.22;64.28;100028.81;4451130;32;20164;-74
2023/12/31 05:47:00;;;;;;;30.17;20.40;;;;;;;2.95;65.11;100037.63;4450997;32;20179;-75
2023/12/31 05:49:35;;;;;;;25.62;18.35;;;;;;;3.04;64.91;100027.72;4451119;32;20156;-75
2023/12/31 05:52:09;;;;;;;24.00;18.33;;;;;;;3.16;64.69;100035.12;4444779;32;20445;-74
2023/12/31 05:54:39;;;;;;;26.73;18.37;;;;;;;3.07;65.15;100032.84;4451165;32;20175;-74
2023/12/31 05:57:08;;;;;;;25.42;20.58;;;;;;;3.13;65.06;100028.25;4451388;32;20522;-75
2023/12/31 05:59:37;;;;;;;21.75;18.25;;;;;;;3.16;64.64;100017.66;4451140;32;20179;-74
2023/12/31 06:02:07;;;;;;;25.95;18.33;;;;;;;3.07;65.28;100032.84;4444546;32;20156;-75
2023/12/31 06:04:36;;;;;;;24.20;19.45;;;;;;;3.09;65.42;100025.78;4451114;32;20159;-75
2023/12/31 06:07:06;;;;;;;26.92;20.62;;;;;;;3.39;64.15;100029.88;4450703;32;20163;-75
2023/12/31 06:09:36;;;;;;;26.20;19.90;;;;;;;2.91;65.69;100027.31;4450423;32;20144;-75
2023/12/31 06:12:06;;;;;;;25.75;20.55;;;;;;;3.03;65.52;100015.56;4444814;32;20159;-75
2023/12/31 06:14:35;;;;;;;27.20;19.67;;;;;;;2.93;65.97;100025.47;4450574;32;20179;-75
2023/12/31 06:17:04;;;;;;;30.62;20.37;;;;;;;2.99;66.09;100022.66;4450975;32;20151;-75
2023/12/31 06:19:34;;;;;;;28.35;21.10;;;;;;;2.98;66.17;100023.56;4436605;32;20247;-75
2023/12/31 06:22:07;;;;;;;56.65;24.00;;;;;;;2.98;66.36;100026.19;4444506;32;20164;-74
2023/12/31 06:24:36;;;;;;;41.33;22.30;;;;;;;3.12;65.97;100020.44;4450970;32;20128;-74
2023/12/31 06:27:05;;;;;;;49.85;25.83;;;;;;;3.44;64.91;100019.22;4450951;32;20179;-75
2023/12/31 06:29:34;;;;;;;59.08;26.60;;;;;;;3.22;65.84;100018.34;4451398;32;20160;-74
2023/12/31 06:32:04;;;;;;;57.30;27.60;;;;;;;3.11;65.52;100016.97;4436195;32;20164;-74
2023/12/31 06:34:33;;;;;;;75.53;29.92;;;;;;;3.15;65.91;100013.31;4452366;32;20110;-75
2023/12/31 06:37:02;;;;;;;60.90;23.42;;;;;;;3.01;66.29;100018.22;4452454;32;20167;-75
2023/12/31 06:39:33;;;;;;;55.20;24.35;;;;;;;2.87;66.89;100018.72;4452503;32;20204;-75
2023/12/31 06:42:02;;;;;;;140.48;33.63;;;;;;;2.91;67.14;100009.00;4446241;32;20160;-75
2023/12/31 06:44:31;;;;;;;50.88;26.80;;;;;;;2.87;67.14;100010.00;4452403;32;20202;-75
2023/12/31 06:47:02;;;;;;;53.70;25.85;;;;;;;2.79;67.18;100010.28;4452468;32;20164;-75
2023/12/31 06:49:32;;;;;;;50.17;29.93;;;;;;;2.38;68.57;100016.97;4452546;32;20535;-75
2023/12/31 06:52:01;;;;;;;58.22;31.52;;;;;;;2.83;67.27;100014.50;4446062;32;20175;-75
2023/12/31 06:54:31;;;;;;;48.85;28.05;;;;;;;2.87;67.04;100010.88;4451967;32;20520;-74
2023/12/31 06:57:05;;;;;;;42.88;28.85;;;;;;;3.08;66.32;100013.59;4438580;32;20160;-75
2023/12/31 06:59:37;;;;;;;44.50;30.95;;;;;;;3.04;66.81;100006.78;4452436;32;20618;-75
2023/12/31 07:02:07;;;;;;;49.40;34.83;;;;;;;2.98;67.15;100014.88;4445916;32;20171;-75
2023/12/31 07:04:40;;;;;;;46.95;36.85;;;;;;;3.16;66.71;100014.19;4452318;32;20164;-75
2023/12/31 07:07:09;;;;;;;53.00;36.83;;;;;;;2.54;68.93;100018.16;4452269;32;20156;-75
2023/12/31 07:09:39;;;;;;;69.20;42.70;;;;;;;2.87;68.25;100010.00;4452383;32;20397;-74
2023/12/31 07:12:10;;;;;;;72.90;38.63;;;;;;;2.64;69.53;100009.06;4452404;32;20538;-75
2023/12/31 07:14:39;;;;;;;73.47;36.58;;;;;;;2.91;69.03;100006.37;4452210;32;20163;-75
2023/12/31 07:17:08;;;;;;;66.50;36.95;;;;;;;3.10;68.91;100006.56;4452479;32;20160;-75
2023/12/31 07:19:40;;;;;;;111.32;41.75;;;;;;;3.17;69.37;100003.66;4452296;32;20152;-74
2023/12/31 07:22:11;;;;;;;116.37;39.67;;;;;;;2.84;71.05;100013.59;4452345;32;20516;-74
2023/12/31 07:24:40;;;;;;;80.85;39.05;;;;;;;3.15;70.30;100000.22;4452379;32;20433;-74
2023/12/31 07:27:11;;;;;;;85.87;39.55;;;;;;;3.24;70.55;100003.41;4452537;32;20171;-74
2023/12/31 07:29:40;;;;;;;89.43;39.65;;;;;;;3.33;70.59;100003.09;4452230;32;20436;-75
2023/12/31 07:32:10;;;;;;;79.85;40.10;;;;;;;3.43;70.63;100004.44;4452181;32;20160;-75
2023/12/31 07:34:39;;;;;;;71.20;36.97;;;;;;;3.83;69.85;100008.12;4452166;32;20144;-75
2023/12/31 07:37:08;;;;;;;77.57;35.67;;;;;;;3.80;69.79;100003.88;4452166;32;20176;-74
2023/12/31 07:39:37;;;;;;;121.13;43.10;;;;;;;3.56;70.79;100005.66;4452088;32;20626;-74
2023/12/31 07:42:07;;;;;;;153.35;53.42;;;;;;;3.57;71.00;100003.91;4451885;32;20176;-75
2023/12/31 07:44:38;;;;;;;117.05;50.80;;;;;;;3.67;71.10;100002.63;4452011;32;20152;-74
2023/12/31 07:47:06;;;;;;;68.90;41.63;;;;;;;3.90;70.70;100007.81;4451858;32;20164;-74
2023/12/31 07:49:36;;;;;;;93.82;42.88;;;;;;;3.88;71.50;100006.16;4451901;32;20464;-75
2023/12/31 07:52:06;;;;;;;64.10;40.80;;;;;;;4.02;71.32;100000.37;4451954;32;20170;-74
2023/12/31 07:54:35;;;;;;;108.07;43.45;;;;;;;4.27;71.08;99997.59;4451793;32;20156;-74
2023/12/31 07:57:05;;;;;;;85.82;42.78;;;;;;;4.30;71.58;99997.47;4452348;32;20152;-74
2023/12/31 07:59:35;;;;;;;94.13;48.87;;;;;;;3.78;74.46;100000.44;4451922;32;20164;-74
2023/12/31 08:02:05;;;;;;;113.95;45.50;;;;;;;4.05;74.45;99998.47;4451744;32;20167;-74
2023/12/31 08:04:35;;;;;;;93.93;45.53;;;;;;;3.85;75.84;99999.28;4451881;32;20167;-74
2023/12/31 08:07:09;;;;;;;106.32;42.72;;;;;;;3.99;75.44;99995.25;4452007;32;20169;-74
2023/12/31 08:09:39;;;;;;;81.05;41.37;;;;;;;4.58;73.82;99989.25;4451723;32;20151;-74
2023/12/31 08:12:08;;;;;;;90.97;41.40;;;;;;;4.51;74.04;99988.66;4452290;32;20171;-74
2023/12/31 08:14:37;;;;;;;147.30;41.83;;;;;;;4.54;74.00;99995.56;4451655;32;20184;-74
2023/12/31 08:17:08;;;;;;;118.70;39.20;;;;;;;4.40;74.80;99993.53;4451815;32;20169;-74
2023/12/31 08:19:37;;;;;;;93.22;38.58;;;;;;;4.23;76.06;99994.22;4451624;32;20447;-74
2023/12/31 08:22:07;;;;;;;158.85;46.17;;;;;;;4.93;82.02;99982.47;4451765;32;20175;-74
2023/12/31 08:24:36;;;;;;;210.48;51.47;;;;;;;5.91;82.95;99978.75;4451641;32;20167;-77
2023/12/31 08:27:05;;;;;;;155.68;45.72;;;;;;;6.55;79.05;99979.09;4452053;32;20165;-74
2023/12/31 08:29:34;;;;;;;182.80;44.75;;;;;;;6.98;77.03;99975.09;4451637;32;20482;-75
2023/12/31 08:32:04;;;;;;;152.95;40.50;;;;;;;7.28;72.76;99979.63;4451768;32;20187;-74
2023/12/31 08:34:34;;;;;;;78.97;35.30;;;;;;;6.94;70.37;99976.19;4451902;32;20180;-74
2023/12/31 08:37:04;;;;;;;74.32;37.67;;;;;;;7.07;68.39;99984.28;4437401;32;20168;-74
2023/12/31 08:39:37;;;;;;;219.00;45.63;;;;;;;6.55;69.27;99977.31;4451665;32;20180;-74
2023/12/31 08:42:06;;;;;;;119.20;40.00;;;;;;;6.40;69.42;99983.38;4452155;32;20155;-74
2023/12/31 08:44:35;;;;;;;99.13;34.80;;;;;;;6.36;69.67;99984.44;4451586;32;20455;-74
2023/12/31 08:47:17;;;;;;;304.40;61.67;;;;;;;6.22;70.53;99976.41;4451691;32;20153;-74
2023/12/31 08:49:48;;;;;;;132.90;46.65;;;;;;;5.47;73.34;99986.13;4451836;32;20152;-74
2023/12/31 08:52:17;;;;;;;210.32;51.00;;;;;;;5.64;73.85;99980.06;4451345;32;20172;-74
2023/12/31 08:54:47;;;;;;;150.52;45.40;;;;;;;5.65;73.31;99984.38;4450675;32;20160;-74
2023/12/31 08:57:16;;;;;;;137.18;40.58;;;;;;;5.55;74.52;99986.63;4452108;32;20527;-74
2023/12/31 08:59:45;;;;;;;89.13;41.92;;;;;;;5.75;74.19;99988.31;4451596;32;20531;-74
2023/12/31 09:02:15;;;;;;;122.53;45.40;;;;;;;5.89;74.64;99993.72;4451437;32;20156;-74
2023/12/31 09:04:48;;;;;;;179.57;50.12;;;;;;;5.88;75.13;99993.81;4437159;32;20175;-74
2023/12/31 09:07:18;;;;;;;148.93;47.47;;;;;;;5.68;75.75;99973.75;4451172;32;20429;-74
2023/12/31 09:09:47;;;;;;;134.40;46.83;;;;;;;5.37;77.08;99977.81;4451236;32;20156;-74
2023/12/31 09:12:16;;;;;;;158.12;53.45;;;;;;;5.33;77.91;99975.41;4451484;32;20546;-74
2023/12/31 09:14:45;;;;;;;184.30;60.00;;;;;;;5.19;78.06;99978.69;4451241;32;20157;-74
2023/12/31 09:17:15;;;;;;;151.12;53.05;;;;;;;5.00;79.34;99978.66;4451356;32;20471;-74
2023/12/31 09:19:44;;;;;;;168.62;76.22;;;;;;;5.30;78.39;99971.13;4451264;32;20156;-74
2023/12/31 09:22:14;;;;;;;176.85;67.75;;;;;;;5.29;77.94;99971.22;4451334;32;20187;-74
2023/12/31 09:24:45;;;;;;;95.57;48.60;;;;;;;5.39;78.16;99975.12;4451431;32;20172;-74
2023/12/31 09:27:14;;;;;;;160.05;73.75;;;;;;;5.76;76.69;99966.34;4451646;32;20511;-74
2023/12/31 09:29:43;;;;;;;102.15;53.92;;;;;;;5.81;76.64;99956.44;4451226;32;20343;-74
2023/12/31 09:32:18;;;;;;;69.35;49.10;;;;;;;5.72;76.82;99951.62;4451148;32;20183;-74
2023/12/31 09:34:47;;;;;;;71.95;48.13;;;;;;;5.55;77.35;99939.31;4451160;32;20144;-74
2023/12/31 09:37:19;;;;;;;79.03;52.13;;;;;;;5.77;76.92;99938.25;4451348;32;20166;-74
2023/12/31 09:39:49;;;;;;;73.90;50.80;;;;;;;5.91;76.45;99943.69;4451270;32;20156;-74
2023/12/31 09:42:28;;;;;;;69.30;48.47;;;;;;;5.33;78.76;99934.22;4451706;32;20151;-74
2023/12/31 09:44:59;;;;;;;67.53;48.15;;;;;;;5.62;78.57;99931.97;4450744;32;20192;-74
2023/12/31 09:47:28;;;;;;;75.62;49.75;;;;;;;5.87;77.80;99926.38;4445307;32;20164;-74
2023/12/31 09:49:59;;;;;;;65.43;45.95;;;;;;;5.71;78.38;99913.12;4450983;32;20175;-74
2023/12/31 09:52:33;;;;;;;69.07;51.28;;;;;;;6.06;77.35;99919.31;4450984;32;20156;-74
2023/12/31 09:55:03;;;;;;;66.55;45.22;;;;;;;6.07;77.24;99918.38;4451113;32;20429;-74
2023/12/31 09:57:33;;;;;;;67.97;48.50;;;;;;;6.20;76.57;99921.22;4451039;32;20162;-74
2023/12/31 10:00:05;;;;;;;63.75;46.72;;;;;;;6.52;75.90;99918.72;4451354;32;20175;-74
2023/12/31 10:02:37;;;;;;;62.88;44.67;;;;;;;6.63;76.03;99919.84;4436689;32;20183;-75
2023/12/31 10:05:07;;;;;;;62.30;44.67;;;;;;;6.53;76.24;99918.66;4450583;32;20636;-74
2023/12/31 10:07:38;;;;;;;56.42;43.72;;;;;;;6.55;75.86;99906.25;4450957;32;20160;-75
2023/12/31 10:10:10;;;;;;;64.00;45.90;;;;;;;6.64;75.78;99912.81;4450937;32;20164;-75
2023/12/31 10:12:39;;;;;;;58.55;46.37;;;;;;;6.68;75.50;99900.31;4451075;32;20163;-74
2023/12/31 10:15:09;;;;;;;59.80;44.88;;;;;;;6.36;76.67;99890.56;4436895;32;20406;-75
2023/12/31 10:17:39;;;;;;;62.90;46.92;;;;;;;6.56;76.49;99881.59;4450774;32;20176;-74
2023/12/31 10:20:08;;;;;;;65.03;46.28;;;;;;;6.53;77.16;99867.75;4450833;32;20452;-74
2023/12/31 10:22:39;;;;;;;63.20;47.62;;;;;;;6.84;76.17;99870.44;4450867;32;20155;-74
2023/12/31 10:25:15;;;;;;;57.42;46.35;;;;;;;7.11;77.07;99859.34;4450546;32;20704;-75
2023/12/31 10:27:47;;;;;;;53.92;42.47;;;;;;;8.02;74.95;99855.00;4450546;32;20148;-75
2023/12/31 10:30:20;;;;;;;48.47;39.30;;;;;;;8.95;70.91;99846.66;4450858;32;20187;-74
2023/12/31 10:32:49;;;;;;;49.80;39.65;;;;;;;9.00;69.46;99841.06;4450475;32;20155;-76
2023/12/31 10:35:20;;;;;;;49.80;39.05;;;;;;;8.40;69.87;99839.53;4450539;32;20168;-75
2023/12/31 10:38:03;;;;;;;50.42;38.00;;;;;;;7.78;71.43;99839.66;4450429;32;20160;-74
2023/12/31 10:40:40;;;;;;;49.88;36.30;;;;;;;7.76;71.33;99836.28;4450643;32;20187;-75
2023/12/31 10:43:12;;;;;;;49.35;37.33;;;;;;;7.09;73.91;99842.78;4450381;32;20156;-74
2023/12/31 10:45:41;;;;;;;48.10;39.50;;;;;;;7.46;73.82;99835.41;4450227;32;20225;-75
2023/12/31 10:48:15;;;;;;;50.15;39.25;;;;;;;7.09;74.60;99833.09;4450402;32;20591;-74
2023/12/31 10:50:49;;;;;;;49.97;40.78;;;;;;;7.52;73.56;99828.00;4449915;32;20207;-74
2023/12/31 10:53:22;;;;;;;;;;;;;;;7.50;73.65;99821.97;4450507;32;20176;-75
2023/12/31 10:55:54;;;;;;;52.50;40.78;;;;;;;7.36;73.70;99816.63;4450254;32;20046;-75
2023/12/31 10:58:24;;;;;;;48.40;40.23;;;;;;;7.62;73.20;99821.25;4450013;32;20184;-75
2023/12/31 11:00:53;;;;;;;52.05;40.17;;;;;;;7.58;72.81;99806.53;4449926;32;20448;-75
2023/12/31 11:03:26;;;;;;;49.20;38.90;;;;;;;7.42;73.80;99797.00;4449880;32;20152;-74
2023/12/31 11:05:56;;;;;;;55.08;40.12;;;;;;;7.60;73.40;99791.50;4450285;32;20176;-75
2023/12/31 11:08:28;;;;;;;51.65;38.20;;;;;;;7.75;72.66;99780.97;4449919;32;20188;-75
2023/12/31 11:10:58;;;;;;;49.88;41.22;;;;;;;7.84;72.15;99775.16;4449934;32;20167;-74
2023/12/31 11:13:28;;;;;;;49.97;40.60;;;;;;;7.74;72.70;99776.62;4435807;32;20543;-74
2023/12/31 11:16:03;;;;;;;52.80;41.20;;;;;;;7.98;72.04;99774.31;4449865;32;20464;-75
2023/12/31 11:18:57;;;;;;;50.00;41.25;;;;;;;7.78;72.31;99773.72;4452158;32;20179;-74
2023/12/31 11:21:45;;;;;;;50.30;38.92;;;;;;;7.79;72.77;99764.87;4452162;32;20451;-74
2023/12/31 11:24:18;;;;;;;49.60;40.35;;;;;;;8.05;71.63;99760.66;4452488;32;20143;-74
2023/12/31 11:27:04;;;;;;;53.22;39.03;;;;;;;8.01;71.82;99756.50;4451934;32;20440;-75
2023/12/31 11:29:33;;;;;;;47.33;37.42;;;;;;;7.97;71.79;99748.87;4452127;32;20171;-75
2023/12/31 11:32:05;;;;;;;54.60;41.15;;;;;;;8.02;71.54;99739.72;4451918;32;20159;-75
2023/12/31 11:34:37;;;;;;;50.55;41.17;;;;;;;7.77;72.42;99732.47;4452071;32;20176;-75
2023/12/31 11:37:09;;;;;;;53.15;42.00;;;;;;;7.93;72.31;99726.28;4452004;32;20164;-74